Time;durP1;ratioP1;P1;durP2;ratioP2;P2;SDS_P1;SDS_P2;PMS_P1;PMS_P2;Temp;Humidity;BMP_temperature;BMP_pressure;BME280_temperature;BME280_humidity;BME280_pressure;Samples;Min_cycle;Max_cycle;Signal;HPM_P1;HPM_P2
2022/02/09 00:07:06;;;;;;;1.60;1.40;;;10.20;99.90;;;;;;5064413;28;20749;-60
2022/02/09 00:09:33;;;;;;;1.97;1.60;;;10.10;99.90;;;;;;5079116;28;20908;-58
2022/02/09 00:12:08;;;;;;;3.20;1.70;;;10.10;99.90;;;;;;5072826;28;20209;-56
2022/02/09 00:14:55;;;;;;;2.73;1.93;;;10.10;99.90;;;;;;5065486;28;20942;-60
2022/02/09 00:17:45;;;;;;;2.47;2.13;;;10.00;99.90;;;;;;5076033;28;20322;-58
2022/02/09 00:20:50;;;;;;;2.90;2.60;;;10.00;99.90;;;;;;5071346;28;20598;-58
2022/02/09 01:57:10;;;;;;;2.97;2.67;;;9.40;99.90;;;;;;5079587;28;20287;-60
2022/02/09 01:59:38;;;;;;;3.53;3.23;;;9.30;99.90;;;;;;5076797;28;20295;-58
2022/02/09 02:02:06;;;;;;;3.37;2.97;;;9.40;99.90;;;;;;5078457;28;20205;-59
2022/02/09 02:04:33;;;;;;;3.73;3.13;;;9.40;99.90;;;;;;5083098;28;20261;-60
2022/02/09 02:07:06;;;;;;;2.70;2.50;;;9.40;99.90;;;;;;5083001;28;20251;-58
2022/02/09 02:09:36;;;;;;;5.37;2.93;;;9.40;99.90;;;;;;5078358;28;20247;-59
2022/02/09 02:12:11;;;;;;;4.03;2.47;;;9.40;99.90;;;;;;5081851;28;20304;-59
2022/02/09 02:14:44;;;;;;;2.20;2.00;;;9.40;99.90;;;;;;5076258;28;20892;-59
2022/02/09 02:19:51;;;;;;;3.97;2.47;;;9.40;99.90;;;;;;5080230;28;20332;-58
2022/02/09 03:14:00;;;;;;;5.63;4.60;;;9.30;99.90;;;;;;5075845;28;20237;-58
2022/02/09 03:16:36;;;;;;;5.20;4.37;;;9.30;99.90;;;;;;5062560;28;20233;-59
2022/02/09 03:22:14;;;;;;;6.63;5.40;;;9.20;99.90;;;;;;5080698;28;20205;-60
2022/02/09 03:44:25;;;;;;;7.70;5.93;;;9.10;99.90;;;;;;5077824;28;20213;-60
2022/02/09 03:54:57;;;;;;;7.97;7.03;;;9.00;99.90;;;;;;5077241;28;20712;-54
2022/02/09 03:57:28;;;;;;;8.33;6.87;;;8.90;99.90;;;;;;5075871;28;20292;-55
2022/02/09 04:00:00;;;;;;;8.37;6.73;;;8.90;99.90;;;;;;5057330;28;20934;-54
2022/02/09 04:02:27;;;;;;;8.70;7.33;;;8.90;99.90;;;;;;5077924;28;20214;-55
2022/02/09 04:04:57;;;;;;;8.87;7.13;;;8.90;99.90;;;;;;5063681;28;20205;-55
2022/02/09 04:07:24;;;;;;;8.07;6.63;;;8.90;99.90;;;;;;5078609;28;20221;-55
2022/02/09 04:09:55;;;;;;;8.20;6.40;;;8.80;99.90;;;;;;5073973;28;20321;-54
2022/02/09 04:15:15;;;;;;;10.80;6.93;;;8.80;99.90;;;;;;5075233;28;20202;-54
2022/02/09 04:17:59;;;;;;;10.60;7.40;;;8.70;99.90;;;;;;5081287;28;20729;-55
2022/02/09 04:37:33;;;;;;;10.33;7.67;;;8.60;99.90;;;;;;5063706;28;20209;-55
2022/02/09 04:40:08;;;;;;;7.60;6.17;;;8.70;99.90;;;;;;5060220;28;20654;-54
2022/02/09 04:43:03;;;;;;;7.67;6.33;;;8.70;99.90;;;;;;5062400;28;20240;-54
2022/02/09 04:50:29;;;;;;;7.10;6.00;;;8.60;99.90;;;;;;5059369;28;20588;-56
2022/02/09 04:58:36;;;;;;;8.90;6.33;;;8.60;99.90;;;;;;5062708;28;20203;-54
2022/02/09 05:01:38;;;;;;;8.63;5.80;;;8.50;99.90;;;;;;5061819;28;20210;-56
2022/02/09 05:18:02;;;;;;;7.30;5.23;;;8.40;99.90;;;;;;5063072;28;21129;-54
2022/02/09 05:23:42;;;;;;;7.67;5.13;;;8.40;99.90;;;;;;5078270;28;20202;-55
2022/02/09 05:26:08;;;;;;;6.03;5.20;;;8.40;99.90;;;;;;5076848;28;20289;-56
2022/02/09 05:28:35;;;;;;;5.60;4.97;;;8.30;99.90;;;;;;5076750;28;20617;-55
2022/02/09 05:31:06;;;;;;;7.90;5.07;;;8.40;99.90;;;;;;5076647;28;20305;-54
2022/02/09 05:33:32;;;;;;;5.73;4.93;;;8.30;99.90;;;;;;5080672;28;20230;-56
2022/02/09 05:35:59;;;;;;;6.00;4.87;;;8.30;99.90;;;;;;5081469;28;20258;-55
2022/02/09 05:38:26;;;;;;;6.17;4.90;;;8.30;99.90;;;;;;5083082;28;20294;-54
2022/02/09 05:40:53;;;;;;;6.97;5.03;;;8.30;99.90;;;;;;5066974;28;20300;-55
2022/02/09 05:43:23;;;;;;;7.00;5.10;;;8.30;99.90;;;;;;5081017;28;20892;-56
2022/02/09 05:51:23;;;;;;;5.90;4.50;;;8.30;99.90;;;;;;5077570;28;20289;-54
2022/02/09 05:59:05;;;;;;;6.67;5.00;;;8.30;99.90;;;;;;5070164;28;20649;-54
2022/02/09 06:01:33;;;;;;;5.10;4.30;;;8.30;99.90;;;;;;5062081;28;20206;-55
2022/02/09 06:04:00;;;;;;;4.57;3.93;;;8.30;99.90;;;;;;5077158;28;20235;-54
2022/02/09 06:06:27;;;;;;;4.97;4.13;;;8.30;99.90;;;;;;5059084;28;20305;-55
2022/02/09 06:08:56;;;;;;;6.67;4.37;;;8.30;99.90;;;;;;5074425;28;20743;-56
2022/02/09 06:11:31;;;;;;;4.83;4.07;;;8.30;99.90;;;;;;5046730;28;20984;-54
2022/02/09 06:14:16;;;;;;;4.80;4.10;;;8.30;99.90;;;;;;5072375;28;20201;-56
2022/02/09 06:22:23;;;;;;;3.83;3.40;;;8.20;99.90;;;;;;5023270;28;20306;-55
2022/02/09 06:24:51;;;;;;;4.17;2.70;;;8.20;99.90;;;;;;5021922;28;20201;-55
2022/02/09 06:27:18;;;;;;;5.30;3.43;;;8.20;99.90;;;;;;5006988;28;20224;-55
2022/02/09 06:29:46;;;;;;;7.63;4.30;;;8.20;99.90;;;;;;5020139;28;20224;-54
2022/02/09 06:32:15;;;;;;;6.23;3.77;;;8.30;99.90;;;;;;5023085;28;20225;-55
2022/02/09 06:34:43;;;;;;;4.20;3.67;;;8.30;99.90;;;;;;5021913;28;20311;-55
2022/02/09 06:37:25;;;;;;;4.53;3.47;;;8.20;99.90;;;;;;5021290;28;20231;-55
2022/02/09 06:39:57;;;;;;;4.73;3.57;;;8.30;99.90;;;;;;5019776;28;20267;-54
2022/02/09 06:42:27;;;;;;;4.43;3.53;;;8.20;99.90;;;;;;5023234;28;20608;-56
2022/02/09 06:45:02;;;;;;;4.67;3.80;;;8.20;99.90;;;;;;5021206;28;20216;-55
2022/02/09 06:47:29;;;;;;;5.57;3.87;;;8.20;99.90;;;;;;5005416;28;20258;-53
2022/02/09 06:50:06;;;;;;;5.27;4.67;;;8.20;99.90;;;;;;5020553;28;20201;-54
2022/02/09 06:52:34;;;;;;;5.87;4.50;;;8.10;99.90;;;;;;5033115;28;20215;-54
2022/02/09 06:55:15;;;;;;;7.77;4.60;;;8.20;99.90;;;;;;5065868;28;20228;-56
2022/02/09 07:00:15;;;;;;;7.90;6.03;;;8.20;99.90;;;;;;5073682;28;20203;-55
2022/02/09 07:02:43;;;;;;;7.13;5.70;;;8.20;99.90;;;;;;5080363;28;20202;-55
2022/02/09 07:05:11;;;;;;;7.03;5.60;;;8.20;99.90;;;;;;5077751;28;20835;-56
2022/02/09 07:07:38;;;;;;;8.40;6.03;;;8.10;99.90;;;;;;5063087;28;20211;-56
2022/02/09 07:10:06;;;;;;;10.17;5.97;;;8.20;99.90;;;;;;5078968;28;20269;-55
2022/02/09 07:12:33;;;;;;;9.53;6.17;;;8.20;99.90;;;;;;5057639;28;21155;-54
2022/02/09 07:15:00;;;;;;;9.63;6.40;;;8.20;99.90;;;;;;5080712;28;20198;-54
2022/02/09 07:17:30;;;;;;;10.07;7.43;;;8.20;99.90;;;;;;5078943;28;20664;-54
2022/02/09 07:20:08;;;;;;;8.90;6.70;;;8.20;99.90;;;;;;5076472;28;20311;-55
2022/02/09 07:22:37;;;;;;;8.50;6.10;;;8.20;99.90;;;;;;5061388;28;20204;-55
2022/02/09 07:25:10;;;;;;;9.17;6.87;;;8.20;99.90;;;;;;5079159;28;20753;-55
2022/02/09 07:27:49;;;;;;;10.10;6.70;;;8.20;99.90;;;;;;5062598;28;20272;-59
2022/02/09 07:30:20;;;;;;;10.77;6.83;;;8.20;99.90;;;;;;5058527;28;20372;-57
2022/02/09 07:32:47;;;;;;;11.20;7.80;;;8.20;99.90;;;;;;5082194;28;20240;-56
2022/02/09 07:35:14;;;;;;;11.43;7.73;;;8.20;99.90;;;;;;5080814;28;20908;-55
2022/02/09 07:37:41;;;;;;;8.73;6.90;;;8.20;99.90;;;;;;5081553;28;20696;-55
2022/02/09 07:40:11;;;;;;;12.67;8.50;;;8.20;99.90;;;;;;5077352;28;20922;-54
2022/02/09 07:42:47;;;;;;;9.97;7.70;;;8.20;99.90;;;;;;5074025;28;20702;-54
2022/02/09 07:50:42;;;;;;;12.33;9.67;;;8.20;99.90;;;;;;5030667;28;20211;-55
2022/02/09 07:55:48;;;;;;;12.80;8.83;;;8.30;99.90;;;;;;5072870;28;20204;-54
2022/02/09 07:58:15;;;;;;;11.53;8.83;;;8.30;99.90;;;;;;5072569;28;20314;-53
2022/02/09 08:00:45;;;;;;;11.47;8.77;;;8.30;99.90;;;;;;5068831;28;20235;-54
2022/02/09 08:03:12;;;;;;;14.37;9.00;;;8.40;99.90;;;;;;5073198;28;20481;-56
2022/02/09 08:05:44;;;;;;;12.13;8.53;;;8.40;99.90;;;;;;5076319;28;20210;-53
2022/02/09 08:08:11;;;;;;;10.43;8.40;;;8.40;99.90;;;;;;5075649;28;20223;-54
2022/02/09 08:10:52;;;;;;;11.73;8.23;;;8.40;99.90;;;;;;5058368;28;20321;-55
2022/02/09 08:29:59;;;;;;;8.90;6.90;;;8.50;99.90;;;;;;5068893;28;20206;-53
2022/02/09 08:34:59;;;;;;;12.67;7.27;;;8.50;99.90;;;;;;5055388;28;20788;-56
2022/02/09 08:37:26;;;;;;;10.33;6.20;;;8.40;99.90;;;;;;5073830;28;20200;-53
2022/02/09 08:39:54;;;;;;;10.80;7.47;;;8.40;99.90;;;;;;5054896;28;20293;-56
2022/02/09 08:42:22;;;;;;;8.67;6.90;;;8.40;99.90;;;;;;5069371;28;20248;-53
2022/02/09 08:44:49;;;;;;;9.27;6.77;;;8.40;99.90;;;;;;5068896;28;20340;-56
2022/02/09 08:47:36;;;;;;;10.80;6.90;;;8.40;99.90;;;;;;5076143;28;20218;-54
2022/02/09 08:50:05;;;;;;;9.43;6.43;;;8.40;99.90;;;;;;5076850;28;20205;-55
2022/02/09 08:52:32;;;;;;;10.87;6.23;;;8.50;99.90;;;;;;5053660;28;20233;-53
2022/02/09 08:54:59;;;;;;;10.13;5.97;;;8.50;99.90;;;;;;5073711;28;20201;-54
2022/02/09 08:57:27;;;;;;;11.73;6.03;;;8.50;99.90;;;;;;5058381;28;20213;-56
2022/02/09 08:59:55;;;;;;;8.70;6.40;;;8.50;99.90;;;;;;5077816;28;20205;-56
2022/02/09 09:02:30;;;;;;;9.27;6.43;;;8.60;99.90;;;;;;5074290;28;20220;-53
2022/02/09 09:05:07;;;;;;;10.07;6.80;;;8.50;99.90;;;;;;5073280;28;20200;-57
2022/02/09 09:07:36;;;;;;;11.37;6.20;;;8.50;99.90;;;;;;5073158;28;20337;-54
2022/02/09 09:10:15;;;;;;;9.07;6.30;;;8.50;99.90;;;;;;5074108;28;20246;-56
2022/02/09 10:02:37;;;;;;;9.83;6.93;;;8.60;99.90;;;;;;5079205;28;20201;-54
2022/02/09 10:05:38;;;;;;;10.20;7.30;;;8.60;99.90;;;;;;5077977;28;20210;-59
2022/02/09 10:34:07;;;;;;;8.77;6.07;;;8.70;99.90;;;;;;5073390;28;20199;-56
2022/02/09 10:36:51;;;;;;;9.77;6.77;;;8.70;99.90;;;;;;5074384;28;20211;-55
2022/02/09 10:39:31;;;;;;;10.33;6.63;;;8.70;99.90;;;;;;5062343;28;20259;-54
2022/02/09 10:44:50;;;;;;;10.57;7.73;;;8.90;99.90;;;;;;5075081;28;20572;-54
2022/02/09 10:47:34;;;;;;;8.80;7.20;;;8.90;99.90;;;;;;5076019;28;20293;-56
2022/02/09 10:50:17;;;;;;;10.90;7.57;;;8.80;99.90;;;;;;5071804;28;20202;-55
2022/02/09 10:52:49;;;;;;;11.87;7.50;;;9.00;99.90;;;;;;5079668;28;20290;-55
2022/02/09 10:55:36;;;;;;;8.90;6.80;;;9.10;99.90;;;;;;5076411;28;20290;-56
2022/02/09 10:58:32;;;;;;;9.03;7.30;;;9.10;99.90;;;;;;5077101;28;20203;-54
2022/02/09 11:00:59;;;;;;;11.43;7.00;;;9.10;99.90;;;;;;5079350;28;20226;-53
2022/02/09 11:03:25;;;;;;;10.90;8.00;;;9.10;99.90;;;;;;5077437;28;20670;-55
2022/02/09 11:05:55;;;;;;;11.57;7.47;;;9.00;99.90;;;;;;5077006;28;20292;-56
2022/02/09 11:08:22;;;;;;;8.60;6.93;;;9.00;99.90;;;;;;5078606;28;20213;-54
2022/02/09 11:10:53;;;;;;;11.33;7.00;;;9.00;99.90;;;;;;5075857;28;20747;-56
2022/02/09 11:13:21;;;;;;;10.03;7.00;;;9.10;99.90;;;;;;5078304;28;20226;-55
2022/02/09 11:15:49;;;;;;;11.43;6.27;;;9.10;99.90;;;;;;5079725;28;20202;-55
2022/02/09 11:18:21;;;;;;;9.97;6.33;;;9.10;99.90;;;;;;5078961;28;20254;-55
2022/02/09 11:21:15;;;;;;;9.00;6.40;;;9.10;99.90;;;;;;5080715;28;20242;-55
2022/02/09 11:23:54;;;;;;;8.80;6.47;;;9.00;99.90;;;;;;5074207;28;20235;-54
2022/02/09 11:29:18;;;;;;;9.53;6.47;;;9.00;99.90;;;;;;5078232;28;20867;-54
2022/02/09 11:32:06;;;;;;;7.20;5.70;;;9.10;99.90;;;;;;5075634;28;20839;-53
2022/02/09 11:34:58;;;;;;;8.50;5.80;;;9.10;99.90;;;;;;5077135;28;20214;-55
2022/02/09 12:11:41;;;;;;;8.50;6.20;;;9.60;99.90;;;;;;5076885;28;20285;-54
2022/02/09 12:19:23;;;;;;;10.20;7.83;;;9.50;99.90;;;;;;5083789;28;20211;-56
2022/02/09 12:24:37;;;;;;;8.50;7.00;;;9.50;99.90;;;;;;5082625;28;20686;-55
2022/02/09 12:27:05;;;;;;;10.17;7.80;;;9.60;99.90;;;;;;5066607;28;20286;-54
2022/02/09 12:29:40;;;;;;;9.93;8.13;;;9.60;99.90;;;;;;5083348;28;20226;-55
2022/02/09 12:32:16;;;;;;;9.53;7.63;;;9.60;99.90;;;;;;5080992;28;20201;-54
2022/02/09 12:34:54;;;;;;;10.07;7.70;;;9.60;99.90;;;;;;5081779;28;20772;-55
2022/02/09 12:37:22;;;;;;;9.50;8.27;;;9.70;99.90;;;;;;5079592;28;20191;-55
2022/02/09 12:39:59;;;;;;;10.70;7.50;;;9.70;99.90;;;;;;5078426;28;20228;-54
2022/02/09 12:42:32;;;;;;;11.53;8.10;;;9.60;99.90;;;;;;5078959;28;20214;-56
2022/02/09 12:45:12;;;;;;;11.60;8.37;;;9.70;99.90;;;;;;5077626;28;20271;-54
2022/02/09 12:47:48;;;;;;;9.40;8.20;;;9.70;99.90;;;;;;5080824;28;20210;-54
2022/02/09 12:50:24;;;;;;;9.93;7.93;;;9.70;99.90;;;;;;5075199;28;20928;-54
2022/02/09 12:52:52;;;;;;;8.73;7.57;;;9.60;99.90;;;;;;5079945;28;20196;-53
2022/02/09 12:55:28;;;;;;;9.87;8.27;;;9.60;99.90;;;;;;5078799;28;20197;-56
2022/02/09 12:58:03;;;;;;;11.97;8.43;;;9.60;99.90;;;;;;5081539;28;20262;-57
2022/02/09 13:00:43;;;;;;;12.37;8.43;;;9.60;99.90;;;;;;5058200;28;20213;-55
2022/02/09 13:03:16;;;;;;;11.00;8.70;;;9.70;99.90;;;;;;5077144;28;20308;-54
2022/02/09 13:05:56;;;;;;;12.53;8.13;;;9.70;99.90;;;;;;5076969;28;20215;-55
2022/02/09 13:08:28;;;;;;;10.63;8.77;;;9.70;99.90;;;;;;5075243;28;20748;-56
2022/02/09 13:11:10;;;;;;;11.33;8.50;;;9.70;99.90;;;;;;5077765;28;20205;-56
2022/02/09 13:13:39;;;;;;;9.43;7.50;;;9.80;99.90;;;;;;5075266;28;20237;-60
2022/02/09 13:16:27;;;;;;;10.30;8.10;;;9.80;99.90;;;;;;5075594;28;20296;-60
2022/02/09 14:58:30;;;;;;;6.27;5.20;;;10.70;99.90;;;;;;5078763;28;20226;-56
2022/02/09 15:09:10;;;;;;;7.97;5.37;;;10.60;99.90;;;;;;5017748;28;20229;-54
2022/02/09 15:14:15;;;;;;;6.93;5.00;;;10.50;99.90;;;;;;5073972;28;21418;-55
2022/02/09 15:22:06;;;;;;;7.70;6.50;;;10.50;99.90;;;;;;5074471;28;20268;-55
2022/02/09 15:24:45;;;;;;;8.50;6.57;;;10.50;99.90;;;;;;5070180;28;20864;-54
2022/02/09 15:27:20;;;;;;;8.60;6.37;;;10.50;99.90;;;;;;5077959;28;20246;-55
2022/02/09 15:29:49;;;;;;;9.03;6.73;;;10.50;99.90;;;;;;5072237;28;20316;-56
2022/02/09 15:32:32;;;;;;;7.70;6.27;;;10.50;99.90;;;;;;5061631;28;20201;-54
2022/02/09 15:35:06;;;;;;;8.83;6.83;;;10.50;99.90;;;;;;5071096;28;20293;-54
2022/02/09 15:37:47;;;;;;;8.33;6.37;;;10.60;99.90;;;;;;5074053;28;20966;-53
2022/02/09 15:40:31;;;;;;;9.33;6.83;;;10.60;99.90;;;;;;5060375;28;20303;-56
2022/02/09 16:21:50;;;;;;;10.60;7.47;;;10.60;99.90;;;;;;5074728;28;20645;-53
2022/02/09 16:23:51;;;;;;;9.13;7.33;;;10.50;99.90;;;;;;5066995;28;20201;-62
2022/02/09 16:45:03;;;;;;;12.17;7.63;;;10.90;99.90;;;;;;5071430;28;20225;-53
2022/02/09 16:50:15;;;;;;;10.63;8.00;;;10.90;99.90;;;;;;5073212;28;20312;-56
2022/02/09 17:19:32;;;;;;;7.90;6.87;;;10.90;99.90;;;;;;5075032;28;20252;-54
2022/02/09 17:22:00;;;;;;;9.47;6.60;;;10.90;99.90;;;;;;5072821;28;20608;-54
2022/02/09 17:24:27;;;;;;;7.13;6.17;;;11.00;99.90;;;;;;5076532;28;20212;-56
2022/02/09 17:26:54;;;;;;;7.50;6.30;;;11.10;99.90;;;;;;5078050;28;20285;-55
2022/02/09 17:29:30;;;;;;;9.93;6.80;;;11.10;99.90;;;;;;5082164;28;20570;-59
2022/02/09 17:37:54;;;;;;;8.13;6.23;;;11.00;99.90;;;;;;5073337;28;20968;-57
2022/02/09 17:53:46;;;;;;;8.53;6.67;;;10.90;99.90;;;;;;5074517;28;20288;-57
2022/02/09 17:56:17;;;;;;;8.63;7.73;;;10.90;99.90;;;;;;5053996;28;20264;-56
2022/02/09 17:58:49;;;;;;;8.23;7.10;;;11.00;99.90;;;;;;5074405;28;20242;-57
2022/02/09 18:01:21;;;;;;;9.43;7.17;;;11.00;99.90;;;;;;5078356;28;20682;-56
2022/02/09 18:03:53;;;;;;;11.40;7.30;;;11.00;99.90;;;;;;5082224;28;20257;-56
2022/02/09 18:06:28;;;;;;;7.00;6.30;;;11.00;99.90;;;;;;5078986;28;20247;-57
2022/02/09 18:11:40;;;;;;;9.17;7.47;;;10.90;99.90;;;;;;5077640;28;20304;-56
2022/02/09 18:14:46;;;;;;;8.40;7.27;;;10.90;99.90;;;;;;5077055;28;20230;-56
2022/02/09 18:26:52;;;;;;;9.73;7.63;;;10.80;99.90;;;;;;5079715;28;20658;-57
2022/02/09 18:31:34;;;;;;;8.70;7.03;;;10.90;99.90;;;;;;5078660;28;20285;-54
2022/02/09 18:34:17;;;;;;;9.97;7.07;;;10.90;99.90;;;;;;5076564;28;20630;-58
2022/02/09 18:44:41;;;;;;;10.43;7.50;;;11.10;99.90;;;;;;5073929;28;20421;-57
2022/02/09 19:03:40;;;;;;;10.90;7.90;;;10.90;99.90;;;;;;5074998;28;20202;-56
2022/02/09 19:06:21;;;;;;;8.00;7.13;;;11.00;99.90;;;;;;5072878;28;20241;-59
2022/02/09 19:14:47;;;;;;;12.17;7.87;;;10.90;99.90;;;;;;5078792;28;20744;-53
2022/02/09 19:17:30;;;;;;;10.83;8.27;;;10.80;99.90;;;;;;5060774;28;20293;-53
2022/02/09 19:33:27;;;;;;;14.27;10.13;;;10.80;99.90;;;;;;5076485;28;20823;-55
2022/02/09 19:55:22;;;;;;;14.43;11.03;;;10.80;99.90;;;;;;5026790;28;20875;-56
2022/02/09 19:57:53;;;;;;;14.33;10.97;;;10.80;99.90;;;;;;5072130;28;20202;-54
2022/02/09 20:00:22;;;;;;;15.23;12.10;;;10.70;99.90;;;;;;5071329;28;20856;-54
2022/02/09 20:02:48;;;;;;;16.73;12.63;;;10.70;99.90;;;;;;5075092;28;20306;-54
2022/02/09 20:05:15;;;;;;;18.60;12.43;;;10.70;99.90;;;;;;5069648;28;20312;-53
2022/02/09 20:07:43;;;;;;;16.73;12.10;;;10.70;99.90;;;;;;5054098;28;20664;-54
2022/02/09 20:10:12;;;;;;;15.60;12.23;;;10.70;99.90;;;;;;5073828;28;20242;-55
2022/02/09 20:12:40;;;;;;;15.43;12.50;;;10.80;99.90;;;;;;5077567;28;20271;-57
2022/02/09 20:15:16;;;;;;;16.53;12.10;;;10.80;99.90;;;;;;5054788;28;20344;-54
2022/02/09 20:17:45;;;;;;;15.23;12.67;;;10.80;99.90;;;;;;5076829;28;20194;-57
2022/02/09 20:20:17;;;;;;;17.80;13.10;;;10.90;99.90;;;;;;5069201;28;20294;-55
2022/02/09 20:22:44;;;;;;;18.27;13.23;;;10.80;99.90;;;;;;5056398;28;20215;-53
2022/02/09 20:25:12;;;;;;;18.80;13.73;;;10.80;99.90;;;;;;5038877;28;20299;-55
2022/02/09 20:27:39;;;;;;;21.33;13.70;;;10.90;99.90;;;;;;5056476;28;20364;-55
2022/02/09 20:30:10;;;;;;;16.80;13.20;;;10.80;99.90;;;;;;5053754;28;20571;-55
2022/02/09 20:32:43;;;;;;;21.30;14.03;;;10.80;99.90;;;;;;5057266;28;20842;-55
2022/02/09 20:35:13;;;;;;;20.63;14.87;;;10.80;99.90;;;;;;5058571;28;20692;-54
2022/02/09 20:37:47;;;;;;;19.43;14.27;;;10.80;99.90;;;;;;5053696;28;20387;-54
2022/02/09 20:40:21;;;;;;;21.57;15.80;;;10.80;99.90;;;;;;5053637;28;20583;-55
2022/02/09 20:42:57;;;;;;;23.03;16.67;;;10.90;99.90;;;;;;5056002;28;20274;-56
2022/02/09 20:47:59;;;;;;;18.97;15.13;;;10.80;99.90;;;;;;5058244;28;20289;-56
2022/02/09 20:50:27;;;;;;;21.27;15.50;;;10.70;99.90;;;;;;5057939;28;20229;-55
2022/02/09 20:52:54;;;;;;;21.17;14.07;;;10.70;99.90;;;;;;5060386;28;20740;-57
2022/02/09 20:55:22;;;;;;;19.00;14.50;;;10.70;99.90;;;;;;5061361;28;20740;-56
2022/02/09 20:57:50;;;;;;;18.53;13.77;;;10.70;99.90;;;;;;5058415;28;20318;-57
2022/02/09 21:00:26;;;;;;;18.27;14.13;;;10.70;99.90;;;;;;5058938;28;20719;-56
2022/02/09 21:03:03;;;;;;;19.43;14.93;;;10.70;99.90;;;;;;5045355;28;20645;-56
2022/02/09 21:05:41;;;;;;;20.47;15.10;;;10.60;99.90;;;;;;5062712;28;20964;-56
2022/02/09 21:14:09;;;;;;;19.97;14.97;;;10.70;99.90;;;;;;5061980;28;20284;-57
2022/02/09 21:54:25;;;;;;;23.90;16.93;;;10.10;99.90;;;;;;5090046;28;20286;-55
2022/02/09 22:16:27;;;;;;;25.73;16.87;;;10.30;99.90;;;;;;5089458;28;20690;-54
2022/02/09 22:45:38;;;;;;;20.23;16.13;;;10.30;99.90;;;;;;5073752;28;21982;-56
2022/02/09 22:48:27;;;;;;;21.80;15.23;;;10.10;99.90;;;;;;5082563;28;20213;-54
2022/02/09 22:50:58;;;;;;;20.60;14.27;;;9.90;99.90;;;;;;5087339;28;20257;-54
2022/02/09 22:56:11;;;;;;;19.43;13.93;;;9.80;99.90;;;;;;5086850;28;20613;-54
2022/02/09 22:58:38;;;;;;;20.20;13.93;;;9.80;99.90;;;;;;5087970;28;20202;-55
2022/02/09 23:01:15;;;;;;;19.63;13.77;;;9.80;99.90;;;;;;5089002;28;20571;-54
2022/02/09 23:06:27;;;;;;;17.40;12.77;;;9.80;99.90;;;;;;5082227;28;20241;-55
